Time;durP1;ratioP1;P1;durP2;ratioP2;P2;SDS_P1;SDS_P2;PMS_P1;PMS_P2;Temp;Humidity;BMP_temperature;BMP_pressure;BME280_temperature;BME280_humidity;BME280_pressure;Samples;Min_cycle;Max_cycle;Signal;HPM_P1;HPM_P2
2022/02/01 00:03:14;;;;;;;31.33;12.57;;;;;;;;;;5022646;28;20045;-73
2022/02/01 00:05:54;;;;;;;42.15;13.48;;;;;;;;;;4995704;28;20025;-73
2022/02/01 00:08:47;;;;;;;41.55;17.45;;;;;;;;;;5013707;28;20022;-73
2022/02/01 00:11:28;;;;;;;33.08;14.18;;;;;;;;;;5000393;28;20025;-73
2022/02/01 00:19:33;;;;;;;27.15;12.20;;;;;;;;;;5012851;28;20080;-74
2022/02/01 00:35:46;;;;;;;34.60;15.80;;;;;;;;;;5012978;28;20033;-73
2022/02/01 00:38:23;;;;;;;39.38;15.77;;;;;;;;;;5003466;28;20033;-73
2022/02/01 00:43:37;;;;;;;41.67;15.43;;;;;;;;;;4949963;28;20027;-73
2022/02/01 00:46:03;;;;;;;35.03;14.80;;;;;;;;;;4958358;28;20067;-71
2022/02/01 00:48:49;;;;;;;35.80;15.02;;;;;;;;;;4956770;28;20051;-73
2022/02/01 00:51:15;;;;;;;36.83;15.98;;;;;;;;;;4956497;29;20035;-73
2022/02/01 00:53:42;;;;;;;36.35;17.45;;;;;;;;;;4954793;29;20043;-73
2022/02/01 00:56:09;;;;;;;37.08;16.85;;;;;;;;;;4956726;29;20016;-73
2022/02/01 00:58:39;;;;;;;38.63;19.33;;;;;;;;;;4955010;29;20130;-74
2022/02/01 01:01:06;;;;;;;55.17;27.85;;;;;;;;;;4952774;28;20008;-73
2022/02/01 01:03:39;;;;;;;46.83;20.77;;;;;;;;;;4953450;29;20509;-73
2022/02/01 01:06:05;;;;;;;;;;;;;;;;;;5452828;23;20018;-74
2022/02/01 01:08:31;;;;;;;40.35;18.30;;;;;;;;;;4979083;28;19960;-75
2022/02/01 01:10:58;;;;;;;41.58;19.88;;;;;;;;;;4977889;28;20026;-73
2022/02/01 01:16:10;;;;;;;37.28;17.77;;;;;;;;;;4983492;28;20050;-73
2022/02/01 01:54:24;;;;;;;54.08;23.33;;;;;;;;;;4934519;29;20089;-73
2022/02/01 01:56:53;;;;;;;44.20;20.50;;;;;;;;;;4936830;29;20032;-73
2022/02/01 01:59:39;;;;;;;43.92;20.52;;;;;;;;;;4919267;29;20071;-72
2022/02/01 02:02:08;;;;;;;43.67;21.00;;;;;;;;;;4920192;29;20036;-72
2022/02/01 02:04:34;;;;;;;52.15;21.45;;;;;;;;;;4932322;29;21959;-73
2022/02/01 02:07:00;;;;;;;43.72;20.90;;;;;;;;;;4938652;29;20028;-73
2022/02/01 02:09:29;;;;;;;43.50;20.90;;;;;;;;;;4927315;29;20039;-72
2022/02/01 02:14:51;;;;;;;46.58;21.90;;;;;;;;;;4879539;29;20090;-73
2022/02/01 02:17:19;;;;;;;50.50;22.23;;;;;;;;;;4891189;29;20044;-73
2022/02/01 02:19:45;;;;;;;45.85;21.23;;;;;;;;;;4900489;29;20288;-72
2022/02/01 02:22:11;;;;;;;45.17;20.90;;;;;;;;;;4883415;29;20077;-73
2022/02/01 02:24:42;;;;;;;41.30;19.85;;;;;;;;;;4898452;29;20047;-73
2022/02/01 02:27:16;;;;;;;43.85;18.88;;;;;;;;;;4888407;29;20021;-72
2022/02/01 02:30:10;;;;;;;44.83;19.95;;;;;;;;;;4861926;29;20048;-73
2022/02/01 02:32:41;;;;;;;40.72;18.13;;;;;;;;;;4863173;29;20045;-72
2022/02/01 02:35:07;;;;;;;47.10;19.92;;;;;;;;;;4864203;29;20081;-72
2022/02/01 02:37:33;;;;;;;39.78;18.35;;;;;;;;;;4859952;29;20034;-73
2022/02/01 02:40:17;;;;;;;44.92;19.27;;;;;;;;;;4862361;29;20037;-72
2022/02/01 02:45:29;;;;;;;41.90;19.35;;;;;;;;;;4992441;28;20066;-73
2022/02/01 02:47:55;;;;;;;44.53;20.38;;;;;;;;;;4995421;28;20039;-72
2022/02/01 02:50:23;;;;;;;49.47;22.30;;;;;;;;;;5004989;28;20041;-73
2022/02/01 02:52:49;;;;;;;47.97;23.15;;;;;;;;;;5008125;28;20628;-73
2022/02/01 02:55:15;;;;;;;45.30;19.88;;;;;;;;;;5013610;28;20060;-73
2022/02/01 02:57:41;;;;;;;40.88;19.95;;;;;;;;;;4993906;28;20045;-73
2022/02/01 03:00:08;;;;;;;43.50;19.58;;;;;;;;;;4997923;28;20039;-73
2022/02/01 03:02:35;;;;;;;44.70;21.88;;;;;;;;;;5003157;28;20033;-73
2022/02/01 03:05:02;;;;;;;42.05;20.67;;;;;;;;;;4970184;28;20518;-77
2022/02/01 03:07:28;;;;;;;48.58;20.80;;;;;;;;;;4989441;28;20118;-72
2022/02/01 03:09:54;;;;;;;40.63;18.95;;;;;;;;;;4972639;28;20042;-74
2022/02/01 03:12:34;;;;;;;40.47;19.70;;;;;;;;;;4992460;28;20031;-73
2022/02/01 03:15:21;;;;;;;44.85;21.63;;;;;;;;;;4959453;28;20420;-72
2022/02/01 03:20:18;;;;;;;51.10;19.92;;;;;;;;;;4983379;28;20077;-72
2022/02/01 03:22:44;;;;;;;46.80;21.40;;;;;;;;;;4991413;28;20035;-72
2022/02/01 03:25:11;;;;;;;40.95;20.40;;;;;;;;;;4992832;28;20034;-72
2022/02/01 03:27:37;;;;;;;41.55;21.92;;;;;;;;;;4978595;28;20055;-73
2022/02/01 03:30:03;;;;;;;41.33;20.05;;;;;;;;;;4987677;28;20057;-73
2022/02/01 03:32:30;;;;;;;40.53;20.92;;;;;;;;;;4985070;28;20034;-71
2022/02/01 03:34:56;;;;;;;49.50;21.90;;;;;;;;;;4976398;28;20042;-72
2022/02/01 03:37:22;;;;;;;43.78;23.75;;;;;;;;;;4980805;28;20023;-72
2022/02/01 03:39:48;;;;;;;46.55;22.27;;;;;;;;;;4973277;28;20015;-73
2022/02/01 03:42:14;;;;;;;41.83;21.00;;;;;;;;;;4989202;28;20035;-73
2022/02/01 03:44:41;;;;;;;43.47;20.92;;;;;;;;;;4989354;28;20047;-73
2022/02/01 03:47:07;;;;;;;40.67;19.77;;;;;;;;;;4969425;28;20502;-73
2022/02/01 03:49:37;;;;;;;38.40;20.13;;;;;;;;;;4977984;28;20038;-72
2022/02/01 03:52:06;;;;;;;38.17;18.55;;;;;;;;;;4993175;28;20035;-73
2022/02/01 03:54:33;;;;;;;36.30;19.02;;;;;;;;;;4993915;28;20015;-72
2022/02/01 03:56:59;;;;;;;42.85;20.10;;;;;;;;;;4986753;28;20079;-72
2022/02/01 03:59:31;;;;;;;39.78;18.85;;;;;;;;;;4994646;28;20022;-72
2022/02/01 04:01:58;;;;;;;40.25;19.45;;;;;;;;;;4996276;28;20007;-70
2022/02/01 04:04:25;;;;;;;40.45;19.75;;;;;;;;;;4988889;28;20035;-72
2022/02/01 04:06:51;;;;;;;39.58;18.85;;;;;;;;;;4977661;28;20023;-71
2022/02/01 04:09:22;;;;;;;37.97;19.65;;;;;;;;;;4963239;28;20067;-72
2022/02/01 04:11:48;;;;;;;36.83;19.73;;;;;;;;;;4985850;28;20019;-72
2022/02/01 04:14:18;;;;;;;44.53;20.75;;;;;;;;;;4978902;28;20038;-73
2022/02/01 04:16:45;;;;;;;37.17;19.80;;;;;;;;;;4997253;28;20014;-72
2022/02/01 04:19:12;;;;;;;33.13;18.17;;;;;;;;;;4979552;28;20086;-73
2022/02/01 04:21:40;;;;;;;42.58;20.65;;;;;;;;;;4971714;28;20210;-73
2022/02/01 04:24:07;;;;;;;60.60;27.45;;;;;;;;;;4975644;28;20023;-73
2022/02/01 04:26:33;;;;;;;45.90;21.38;;;;;;;;;;4991974;28;20019;-72
2022/02/01 04:28:59;;;;;;;41.70;20.42;;;;;;;;;;4990714;28;20094;-73
2022/02/01 04:31:25;;;;;;;57.03;26.33;;;;;;;;;;4984655;28;20038;-73
2022/02/01 04:33:51;;;;;;;57.10;25.10;;;;;;;;;;4995025;28;20018;-73
2022/02/01 04:36:17;;;;;;;73.50;33.13;;;;;;;;;;4992069;28;20045;-73
2022/02/01 04:38:49;;;;;;;65.70;27.52;;;;;;;;;;4990826;28;20030;-73
2022/02/01 04:41:16;;;;;;;44.67;19.23;;;;;;;;;;4990181;28;20031;-73
2022/02/01 04:44:21;;;;;;;49.00;23.85;;;;;;;;;;4995016;28;20034;-72
2022/02/01 04:47:04;;;;;;;38.38;20.25;;;;;;;;;;4878592;29;20049;-72
2022/02/01 04:49:31;;;;;;;50.75;22.33;;;;;;;;;;4874131;29;20073;-73
2022/02/01 04:51:57;;;;;;;46.25;21.95;;;;;;;;;;4876830;29;20026;-72
2022/02/01 04:54:27;;;;;;;41.47;20.08;;;;;;;;;;4872968;29;20045;-72
2022/02/01 04:59:28;;;;;;;36.97;18.85;;;;;;;;;;5323228;23;20615;-72
2022/02/01 05:01:54;;;;;;;34.28;17.02;;;;;;;;;;4992522;28;20030;-72
2022/02/01 05:04:20;;;;;;;38.30;18.85;;;;;;;;;;5006488;23;20061;-73
2022/02/01 05:06:54;;;;;;;39.08;16.75;;;;;;;;;;5015632;28;20094;-72
2022/02/01 05:09:20;;;;;;;35.45;17.95;;;;;;;;;;5000500;28;20019;-73
2022/02/01 05:11:46;;;;;;;32.25;16.92;;;;;;;;;;4991883;28;20026;-72
2022/02/01 05:14:14;;;;;;;31.75;16.33;;;;;;;;;;5019074;28;20015;-73
2022/02/01 05:17:00;;;;;;;32.60;17.73;;;;;;;;;;5019020;28;20027;-73
2022/02/01 05:22:02;;;;;;;34.90;16.95;;;;;;;;;;5012028;28;20103;-72
2022/02/01 05:24:28;;;;;;;36.15;18.30;;;;;;;;;;5014060;28;20013;-73
2022/02/01 05:26:56;;;;;;;38.72;19.52;;;;;;;;;;5003683;28;20011;-73
2022/02/01 05:29:27;;;;;;;43.53;21.77;;;;;;;;;;5008358;28;20030;-72
2022/02/01 05:31:53;;;;;;;40.28;21.98;;;;;;;;;;4997744;28;20023;-73
2022/02/01 05:34:20;;;;;;;36.53;19.75;;;;;;;;;;4996682;28;20043;-72
2022/02/01 05:36:52;;;;;;;33.95;19.40;;;;;;;;;;4995343;28;20033;-73
2022/02/01 05:39:27;;;;;;;37.97;22.80;;;;;;;;;;4993179;28;20175;-73
2022/02/01 05:41:55;;;;;;;48.03;23.40;;;;;;;;;;4995980;28;20033;-73
2022/02/01 05:44:21;;;;;;;36.15;21.05;;;;;;;;;;4993936;28;20069;-73
2022/02/01 05:46:50;;;;;;;42.67;21.70;;;;;;;;;;4979552;28;20030;-72
2022/02/01 05:49:39;;;;;;;35.58;20.67;;;;;;;;;;4978938;28;20075;-73
2022/02/01 05:55:23;;;;;;;40.28;23.05;;;;;;;;;;5620132;23;20062;-73
2022/02/01 05:57:49;;;;;;;42.97;23.98;;;;;;;;;;5006591;28;20030;-73
2022/02/01 06:00:17;;;;;;;50.47;26.95;;;;;;;;;;5002574;28;20019;-73
2022/02/01 06:02:43;;;;;;;46.65;24.92;;;;;;;;;;4997582;28;20488;-73
2022/02/01 06:05:09;;;;;;;39.90;24.75;;;;;;;;;;5008156;28;20070;-74
2022/02/01 06:07:35;;;;;;;51.10;27.48;;;;;;;;;;4998076;28;20030;-73
2022/02/01 06:10:01;;;;;;;53.72;27.63;;;;;;;;;;4988555;28;20089;-76
2022/02/01 06:12:30;;;;;;;40.55;23.13;;;;;;;;;;5013794;28;20396;-72
2022/02/01 06:14:56;;;;;;;44.50;25.67;;;;;;;;;;5013144;28;20157;-75
2022/02/01 06:17:22;;;;;;;51.78;29.20;;;;;;;;;;4985209;28;20106;-74
2022/02/01 06:19:48;;;;;;;42.80;23.00;;;;;;;;;;5297954;23;20101;-75
2022/02/01 06:22:16;;;;;;;42.33;23.70;;;;;;;;;;5038929;28;20038;-75
2022/02/01 06:24:42;;;;;;;66.68;31.33;;;;;;;;;;5029412;28;20315;-78
2022/02/01 06:27:08;;;;;;;45.35;25.98;;;;;;;;;;5031961;28;20057;-76
2022/02/01 06:29:34;;;;;;;46.70;27.27;;;;;;;;;;5049180;28;20097;-77
2022/02/01 06:32:01;;;;;;;38.60;21.60;;;;;;;;;;5032792;28;20032;-78
2022/02/01 06:34:42;;;;;;;39.50;21.35;;;;;;;;;;5026710;28;20074;-79
2022/02/01 06:37:08;;;;;;;37.75;20.20;;;;;;;;;;5031012;28;20029;-78
2022/02/01 06:39:43;;;;;;;29.25;17.05;;;;;;;;;;5036951;28;20032;-79
2022/02/01 06:42:10;;;;;;;33.75;16.83;;;;;;;;;;5025139;28;20117;-77
2022/02/01 06:44:36;;;;;;;31.02;17.98;;;;;;;;;;4992813;28;20874;-76
2022/02/01 06:47:02;;;;;;;29.15;17.98;;;;;;;;;;5011688;28;20040;-76
2022/02/01 06:49:51;;;;;;;28.48;16.77;;;;;;;;;;4999169;28;20057;-78
2022/02/01 06:52:25;;;;;;;28.23;16.00;;;;;;;;;;5027179;28;20018;-77
2022/02/01 06:55:46;;;;;;;31.10;16.48;;;;;;;;;;5038682;28;20102;-77
2022/02/01 06:58:15;;;;;;;29.00;16.58;;;;;;;;;;5037939;28;20029;-76
2022/02/01 07:03:23;;;;;;;43.25;22.67;;;;;;;;;;5424319;23;19930;-78
2022/02/01 07:06:16;;;;;;;56.70;34.22;;;;;;;;;;4956082;28;20065;-74
2022/02/01 07:08:48;;;;;;;30.05;15.65;;;;;;;;;;4960925;28;20051;-73
2022/02/01 07:11:44;;;;;;;39.25;22.98;;;;;;;;;;4976807;28;20105;-73
2022/02/01 07:14:16;;;;;;;39.22;22.00;;;;;;;;;;4989237;28;20030;-73
2022/02/01 07:16:56;;;;;;;33.53;20.13;;;;;;;;;;4921564;28;20042;-74
2022/02/01 07:19:34;;;;;;;36.33;20.33;;;;;;;;;;4977802;28;20027;-73
2022/02/01 07:22:25;;;;;;;50.38;27.27;;;;;;;;;;4969243;29;20031;-73
2022/02/01 07:25:23;;;;;;;50.80;28.15;;;;;;;;;;4953836;29;20434;-71
2022/02/01 07:28:05;;;;;;;37.17;20.98;;;;;;;;;;4882381;29;20063;-72
2022/02/01 07:30:42;;;;;;;41.35;24.23;;;;;;;;;;4908065;29;20044;-72
2022/02/01 07:33:52;;;;;;;51.58;33.78;;;;;;;;;;4860972;29;20028;-75
2022/02/01 07:36:46;;;;;;;36.58;22.77;;;;;;;;;;4850564;29;20038;-72
2022/02/01 07:39:19;;;;;;;36.25;20.95;;;;;;;;;;4855563;29;20018;-72
2022/02/01 07:45:05;;;;;;;34.72;23.15;;;;;;;;;;4857010;29;20144;-78
2022/02/01 07:47:43;;;;;;;30.38;20.42;;;;;;;;;;4805872;29;20035;-72
2022/02/01 07:50:14;;;;;;;35.65;21.55;;;;;;;;;;4796176;30;20047;-72
2022/02/01 07:52:46;;;;;;;35.58;22.77;;;;;;;;;;4750470;30;20067;-74
2022/02/01 07:55:36;;;;;;;31.63;19.88;;;;;;;;;;4781696;30;20049;-72
2022/02/01 07:58:44;;;;;;;28.98;18.10;;;;;;;;;;4800422;30;20031;-73
2022/02/01 08:01:34;;;;;;;;;;;;;;;;;;;;;
2022/02/01 08:04:33;;;;;;;25.75;16.33;;;;;;;;;;4733891;30;20100;-73
2022/02/01 08:07:13;;;;;;;40.28;25.13;;;;;;;;;;4745883;30;20051;-72
2022/02/01 08:09:50;;;;;;;40.08;22.02;;;;;;;;;;4729975;30;20060;-75
2022/02/01 08:20:53;;;;;;;40.13;22.27;;;;;;;;;;4831319;29;20044;-76
2022/02/01 08:23:30;;;;;;;32.92;20.88;;;;;;;;;;4836308;29;20038;-77
2022/02/01 08:25:58;;;;;;;27.60;17.20;;;;;;;;;;4828907;29;20045;-78
2022/02/01 08:28:24;;;;;;;33.03;20.20;;;;;;;;;;4807737;29;20037;-74
2022/02/01 08:30:51;;;;;;;42.72;26.20;;;;;;;;;;4838782;29;20067;-78
2022/02/01 08:33:17;;;;;;;36.20;20.23;;;;;;;;;;4945069;29;20092;-75
2022/02/01 08:35:43;;;;;;;58.40;28.77;;;;;;;;;;4951114;29;20039;-75
2022/02/01 08:38:10;;;;;;;47.00;23.88;;;;;;;;;;4948449;29;20035;-75
2022/02/01 08:40:36;;;;;;;32.35;19.17;;;;;;;;;;4917618;29;20899;-75
2022/02/01 08:43:02;;;;;;;53.90;31.02;;;;;;;;;;4929271;28;20027;-75
2022/02/01 08:45:28;;;;;;;44.15;26.13;;;;;;;;;;4916139;29;20031;-78
2022/02/01 08:47:57;;;;;;;45.42;24.38;;;;;;;;;;4954498;29;20024;-76
2022/02/01 08:50:27;;;;;;;47.80;27.13;;;;;;;;;;4949731;28;20054;-78
2022/02/01 08:52:58;;;;;;;53.58;29.40;;;;;;;;;;4956168;29;20027;-75
2022/02/01 08:55:34;;;;;;;47.42;26.15;;;;;;;;;;4946678;28;20027;-76
2022/02/01 08:58:01;;;;;;;30.88;18.10;;;;;;;;;;4942248;28;20046;-76
2022/02/01 09:00:31;;;;;;;44.80;23.65;;;;;;;;;;4965696;29;20339;-79
2022/02/01 09:03:04;;;;;;;50.35;26.98;;;;;;;;;;4957422;29;20043;-77
2022/02/01 09:05:30;;;;;;;47.58;26.80;;;;;;;;;;4956767;29;20390;-77
2022/02/01 09:08:09;;;;;;;47.13;25.95;;;;;;;;;;4951356;29;20047;-78
2022/02/01 09:11:06;;;;;;;46.13;24.88;;;;;;;;;;4962145;29;20083;-78
2022/02/01 09:13:33;;;;;;;38.70;22.55;;;;;;;;;;4864401;29;20037;-75
2022/02/01 09:16:01;;;;;;;47.45;25.58;;;;;;;;;;4894064;29;20045;-79
2022/02/01 09:18:33;;;;;;;46.58;25.50;;;;;;;;;;4872042;29;20472;-77
2022/02/01 09:20:59;;;;;;;44.92;24.88;;;;;;;;;;4885084;29;20048;-79
2022/02/01 09:23:25;;;;;;;48.28;27.60;;;;;;;;;;4868177;29;20196;-79
2022/02/01 09:25:51;;;;;;;43.70;23.95;;;;;;;;;;4881018;29;20045;-79
2022/02/01 09:28:20;;;;;;;36.60;22.35;;;;;;;;;;4864136;29;20085;-74
2022/02/01 09:30:48;;;;;;;39.42;23.17;;;;;;;;;;4853736;29;20053;-78
2022/02/01 09:33:19;;;;;;;43.58;23.83;;;;;;;;;;4846095;29;20344;-78
2022/02/01 09:35:45;;;;;;;41.55;26.55;;;;;;;;;;4846524;29;20164;-75
2022/02/01 09:38:12;;;;;;;38.45;23.70;;;;;;;;;;4856618;29;20043;-77
2022/02/01 09:40:43;;;;;;;42.55;24.67;;;;;;;;;;4842467;29;20037;-77
2022/02/01 09:43:25;;;;;;;39.17;23.35;;;;;;;;;;4878953;29;20205;-77
2022/02/01 09:45:54;;;;;;;30.33;18.25;;;;;;;;;;4873366;29;20037;-77
2022/02/01 09:48:22;;;;;;;35.75;21.98;;;;;;;;;;4854973;29;20336;-77
2022/02/01 09:50:51;;;;;;;32.78;19.70;;;;;;;;;;4927812;29;20151;-73
2022/02/01 09:53:19;;;;;;;30.48;19.45;;;;;;;;;;4957173;29;20026;-78
2022/02/01 09:55:55;;;;;;;30.88;17.48;;;;;;;;;;4944368;29;20035;-77
2022/02/01 09:58:30;;;;;;;31.10;18.48;;;;;;;;;;4961278;29;20035;-78
2022/02/01 10:01:02;;;;;;;34.30;21.10;;;;;;;;;;4956646;28;20065;-79
2022/02/01 10:03:42;;;;;;;36.70;21.60;;;;;;;;;;4943903;29;20115;-77
2022/02/01 10:06:15;;;;;;;30.67;19.85;;;;;;;;;;4931838;29;20035;-75
2022/02/01 10:08:46;;;;;;;36.53;21.10;;;;;;;;;;4922177;29;20019;-78
2022/02/01 10:11:13;;;;;;;32.85;19.60;;;;;;;;;;4958025;28;20047;-76
2022/02/01 10:14:02;;;;;;;36.83;22.73;;;;;;;;;;4910882;29;20792;-76
2022/02/01 10:16:41;;;;;;;35.40;21.40;;;;;;;;;;4886218;29;20245;-77
2022/02/01 10:19:13;;;;;;;29.98;19.13;;;;;;;;;;4865269;29;20041;-77
2022/02/01 10:22:00;;;;;;;30.52;19.27;;;;;;;;;;4859071;29;20029;-78
2022/02/01 10:24:49;;;;;;;36.88;21.25;;;;;;;;;;4872771;29;20041;-77
2022/02/01 10:27:34;;;;;;;39.10;23.02;;;;;;;;;;4878788;29;20025;-80
2022/02/01 10:30:12;;;;;;;38.17;21.58;;;;;;;;;;4857470;29;20045;-76
2022/02/01 10:33:19;;;;;;;48.97;26.75;;;;;;;;;;4842654;29;20096;-77
2022/02/01 10:35:58;;;;;;;48.90;28.70;;;;;;;;;;4856723;29;20041;-76
2022/02/01 10:38:32;;;;;;;47.08;27.00;;;;;;;;;;4850626;29;20089;-78
2022/02/01 10:40:58;;;;;;;50.15;28.08;;;;;;;;;;4855940;29;20029;-79
2022/02/01 10:43:31;;;;;;;35.60;21.58;;;;;;;;;;4867735;29;20021;-78
2022/02/01 10:46:07;;;;;;;37.47;20.52;;;;;;;;;;4931043;29;20075;-78
2022/02/01 10:48:48;;;;;;;32.88;20.50;;;;;;;;;;4936883;29;20028;-79
2022/02/01 10:51:31;;;;;;;28.70;19.42;;;;;;;;;;4891877;29;20135;-76
2022/02/01 10:53:58;;;;;;;36.33;21.63;;;;;;;;;;4931144;29;20031;-80
2022/02/01 10:56:28;;;;;;;35.80;22.58;;;;;;;;;;4902175;29;20077;-77
2022/02/01 10:59:01;;;;;;;38.10;22.25;;;;;;;;;;4916018;29;20056;-73
2022/02/01 11:01:28;;;;;;;;;;;;;;;;;;4930718;29;20039;-75
2022/02/01 11:03:54;;;;;;;41.28;24.58;;;;;;;;;;4931056;29;19906;-75
2022/02/01 11:06:21;;;;;;;35.35;23.98;;;;;;;;;;4933757;29;20154;-75
2022/02/01 11:08:47;;;;;;;38.15;21.60;;;;;;;;;;4931776;29;20044;-75
2022/02/01 11:11:21;;;;;;;42.35;23.38;;;;;;;;;;4922776;29;20108;-75
2022/02/01 11:13:49;;;;;;;38.33;23.60;;;;;;;;;;4935987;29;20055;-74
2022/02/01 11:16:23;;;;;;;38.95;22.60;;;;;;;;;;4932411;29;20031;-77
2022/02/01 11:18:54;;;;;;;35.20;23.55;;;;;;;;;;4927624;29;20040;-75
2022/02/01 11:21:21;;;;;;;44.65;27.13;;;;;;;;;;4915358;29;20604;-76
2022/02/01 11:23:53;;;;;;;41.97;26.65;;;;;;;;;;4911724;29;20051;-78
2022/02/01 11:26:20;;;;;;;48.55;29.92;;;;;;;;;;4912551;29;20040;-78
2022/02/01 11:29:11;;;;;;;45.47;27.13;;;;;;;;;;4917857;29;20039;-80
2022/02/01 11:31:37;;;;;;;36.38;23.65;;;;;;;;;;4945186;29;20036;-77
2022/02/01 11:34:05;;;;;;;37.42;24.80;;;;;;;;;;4948187;29;20034;-79
2022/02/01 11:36:39;;;;;;;45.63;31.17;;;;;;;;;;4945134;29;20031;-77
2022/02/01 11:39:11;;;;;;;54.08;33.38;;;;;;;;;;4950664;29;20020;-81
2022/02/01 11:41:39;;;;;;;72.20;43.97;;;;;;;;;;4971532;29;20043;-77
2022/02/01 11:44:09;;;;;;;47.35;30.90;;;;;;;;;;4972193;29;20035;-77
2022/02/01 11:46:35;;;;;;;39.65;24.65;;;;;;;;;;4968829;29;20027;-76
2022/02/01 11:49:04;;;;;;;35.90;23.05;;;;;;;;;;4965761;29;20032;-79
2022/02/01 11:51:31;;;;;;;36.20;24.83;;;;;;;;;;4971420;29;20042;-74
2022/02/01 11:53:58;;;;;;;33.85;24.63;;;;;;;;;;4970215;29;20035;-78
2022/02/01 11:56:34;;;;;;;46.22;33.22;;;;;;;;;;4970250;29;20015;-78
2022/02/01 11:59:03;;;;;;;42.60;28.25;;;;;;;;;;4971496;29;20023;-82
2022/02/01 12:01:33;;;;;;;58.50;38.83;;;;;;;;;;4967176;29;20012;-79
2022/02/01 12:04:02;;;;;;;41.35;25.38;;;;;;;;;;4969097;29;20035;-82
2022/02/01 12:06:37;;;;;;;38.53;23.85;;;;;;;;;;4961812;29;20031;-78
2022/02/01 12:09:09;;;;;;;33.53;21.80;;;;;;;;;;4958974;29;20027;-78
2022/02/01 12:11:35;;;;;;;36.67;20.23;;;;;;;;;;4956757;29;20007;-79
2022/02/01 12:14:05;;;;;;;30.55;19.40;;;;;;;;;;4947434;29;20062;-78
2022/02/01 12:17:00;;;;;;;25.55;17.35;;;;;;;;;;4936683;29;20012;-79
2022/02/01 12:28:49;;;;;;;28.25;16.35;;;;;;;;;;5315417;23;20025;-81
2022/02/01 12:31:16;;;;;;;20.30;15.10;;;;;;;;;;5049756;28;20049;-77
2022/02/01 12:33:58;;;;;;;35.42;23.13;;;;;;;;;;5023537;28;20036;-78
2022/02/01 12:36:48;;;;;;;22.67;15.70;;;;;;;;;;5119786;23;20038;-75
2022/02/01 12:39:32;;;;;;;21.33;15.18;;;;;;;;;;5009672;28;20023;-76
2022/02/01 12:42:07;;;;;;;22.30;16.02;;;;;;;;;;5001793;28;20015;-78
2022/02/01 12:47:36;;;;;;;20.52;14.98;;;;;;;;;;4982719;28;20872;-75
2022/02/01 12:50:05;;;;;;;23.25;16.27;;;;;;;;;;4979142;28;20936;-77
2022/02/01 12:52:38;;;;;;;27.38;21.20;;;;;;;;;;4960727;28;20037;-78
2022/02/01 12:55:12;;;;;;;29.20;21.13;;;;;;;;;;5338898;23;20330;-78
2022/02/01 12:57:52;;;;;;;21.90;14.55;;;;;;;;;;4974508;28;20047;-77
2022/02/01 13:00:50;;;;;;;21.35;15.02;;;;;;;;;;4976890;28;20026;-79
2022/02/01 13:03:21;;;;;;;27.73;19.25;;;;;;;;;;4872541;29;21311;-77
2022/02/01 13:05:57;;;;;;;29.35;20.63;;;;;;;;;;4896906;29;20038;-78
2022/02/01 13:21:39;;;;;;;29.67;19.38;;;;;;;;;;5019466;28;20026;-79
2022/02/01 13:24:12;;;;;;;26.70;14.00;;;;;;;;;;5005459;28;20093;-79
2022/02/01 13:26:38;;;;;;;19.15;13.27;;;;;;;;;;5012143;28;20033;-76
2022/02/01 13:29:21;;;;;;;19.70;11.68;;;;;;;;;;5013330;28;20025;-76
2022/02/01 13:31:50;;;;;;;15.30;11.13;;;;;;;;;;5014804;28;20053;-76
2022/02/01 13:34:16;;;;;;;18.73;11.13;;;;;;;;;;5030854;28;20025;-75
2022/02/01 13:37:00;;;;;;;22.08;11.30;;;;;;;;;;5025563;28;20038;-75
2022/02/01 13:39:27;;;;;;;18.13;11.50;;;;;;;;;;5011387;28;20025;-75
2022/02/01 13:42:03;;;;;;;27.55;18.85;;;;;;;;;;5017697;28;20052;-75
2022/02/01 13:44:31;;;;;;;22.30;14.20;;;;;;;;;;5013870;28;20018;-75
2022/02/01 13:47:05;;;;;;;22.17;13.85;;;;;;;;;;5009543;28;20393;-79
2022/02/01 13:49:32;;;;;;;15.18;12.20;;;;;;;;;;5005305;28;20030;-77
2022/02/01 13:51:58;;;;;;;20.00;14.25;;;;;;;;;;4969466;28;20045;-76
2022/02/01 13:54:43;;;;;;;22.10;12.88;;;;;;;;;;5009076;28;20026;-76
2022/02/01 13:57:10;;;;;;;21.10;14.55;;;;;;;;;;4986472;28;20895;-74
2022/02/01 14:00:13;;;;;;;21.02;13.30;;;;;;;;;;4991067;28;20022;-75
2022/02/01 14:03:09;;;;;;;21.88;15.45;;;;;;;;;;4968798;28;20040;-75
2022/02/01 14:05:37;;;;;;;22.63;15.20;;;;;;;;;;5658806;23;20043;-74
2022/02/01 14:08:21;;;;;;;21.08;14.15;;;;;;;;;;4993362;28;20046;-73
2022/02/01 14:11:35;;;;;;;22.13;14.85;;;;;;;;;;4981691;28;20066;-73
2022/02/01 14:22:29;;;;;;;21.48;14.70;;;;;;;;;;5006231;28;20033;-73
2022/02/01 14:36:08;;;;;;;28.48;16.80;;;;;;;;;;4928973;29;20100;-72
2022/02/01 14:44:47;;;;;;;27.73;17.17;;;;;;;;;;4913881;29;20064;-78
2022/02/01 14:47:24;;;;;;;26.85;20.13;;;;;;;;;;4898140;29;20063;-80
2022/02/01 14:49:58;;;;;;;30.98;20.13;;;;;;;;;;4911967;29;20041;-77
2022/02/01 14:52:37;;;;;;;31.10;21.20;;;;;;;;;;4913450;29;20028;-77
2022/02/01 14:55:46;;;;;;;37.40;24.50;;;;;;;;;;4914960;29;20054;-76
2022/02/01 15:11:21;;;;;;;26.30;18.17;;;;;;;;;;4810596;29;20050;-77
2022/02/01 15:14:12;;;;;;;27.73;18.50;;;;;;;;;;4789523;29;20045;-76
2022/02/01 15:17:06;;;;;;;38.47;25.38;;;;;;;;;;4751844;30;20038;-77
2022/02/01 15:20:13;;;;;;;28.00;18.52;;;;;;;;;;4697524;30;20030;-77
2022/02/01 15:22:41;;;;;;;24.35;16.92;;;;;;;;;;4680634;30;20054;-77
2022/02/01 15:25:09;;;;;;;27.65;16.98;;;;;;;;;;4683046;30;20023;-77
2022/02/01 15:32:48;;;;;;;26.05;17.52;;;;;;;;;;5625396;23;20057;-76
2022/02/01 15:35:16;;;;;;;24.95;16.35;;;;;;;;;;5047069;28;20082;-76
2022/02/01 15:37:55;;;;;;;27.05;17.15;;;;;;;;;;5017747;28;20105;-80
2022/02/01 15:57:10;;;;;;;33.03;23.60;;;;;;;;;;5006098;28;20041;-75
2022/02/01 15:59:39;;;;;;;28.23;20.10;;;;;;;;;;5002278;28;20046;-75
2022/02/01 16:02:17;;;;;;;27.55;18.55;;;;;;;;;;4987458;28;20011;-77
2022/02/01 16:04:52;;;;;;;28.58;19.30;;;;;;;;;;5241079;23;20014;-81
2022/02/01 16:07:19;;;;;;;28.10;19.23;;;;;;;;;;5006130;28;20018;-76
2022/02/01 16:10:02;;;;;;;28.88;18.55;;;;;;;;;;5001314;28;20038;-76
2022/02/01 16:12:36;;;;;;;32.47;18.52;;;;;;;;;;4967129;28;20019;-74
2022/02/01 16:15:20;;;;;;;26.75;17.15;;;;;;;;;;4975299;28;20055;-80
2022/02/01 16:17:46;;;;;;;27.45;17.33;;;;;;;;;;4959152;28;20042;-80
2022/02/01 16:20:13;;;;;;;36.92;23.55;;;;;;;;;;4976965;28;20053;-75
2022/02/01 16:22:44;;;;;;;35.42;22.20;;;;;;;;;;4968695;28;20058;-78
2022/02/01 16:25:10;;;;;;;39.33;23.38;;;;;;;;;;4968703;28;20034;-76
2022/02/01 16:27:36;;;;;;;30.33;17.73;;;;;;;;;;4957751;28;20030;-77
2022/02/01 16:30:16;;;;;;;32.17;20.13;;;;;;;;;;4965285;28;20038;-77
2022/02/01 16:32:43;;;;;;;43.78;28.08;;;;;;;;;;4958228;28;20050;-78
2022/02/01 16:35:11;;;;;;;31.50;20.58;;;;;;;;;;4948602;28;20034;-78
2022/02/01 16:37:41;;;;;;;30.70;18.85;;;;;;;;;;4977440;28;20027;-78
2022/02/01 16:40:18;;;;;;;34.05;18.17;;;;;;;;;;4956009;28;20023;-78
2022/02/01 16:42:50;;;;;;;29.02;18.77;;;;;;;;;;4946974;28;20039;-78
2022/02/01 16:45:23;;;;;;;30.27;18.83;;;;;;;;;;4988235;28;20038;-76
2022/02/01 16:48:19;;;;;;;31.08;19.13;;;;;;;;;;4984903;28;20066;-77
2022/02/01 16:50:46;;;;;;;34.53;23.35;;;;;;;;;;4986277;28;20042;-75
2022/02/01 16:53:16;;;;;;;44.42;26.63;;;;;;;;;;4984880;28;20979;-77
2022/02/01 16:56:07;;;;;;;39.13;27.48;;;;;;;;;;4966496;28;20038;-81
2022/02/01 17:01:12;;;;;;;27.75;18.02;;;;;;;;;;5052204;23;20038;-77
2022/02/01 17:03:42;;;;;;;28.35;17.73;;;;;;;;;;4965836;28;20059;-79
2022/02/01 17:06:09;;;;;;;25.45;17.38;;;;;;;;;;4978569;28;20066;-76
2022/02/01 17:08:35;;;;;;;27.75;17.40;;;;;;;;;;4992003;28;20046;-77
2022/02/01 17:23:13;;;;;;;30.38;17.80;;;;;;;;;;4716722;26;20042;-79
2022/02/01 17:26:33;;;;;;;33.10;21.08;;;;;;;;;;4981798;28;20054;-78
2022/02/01 17:29:37;;;;;;;35.58;19.75;;;;;;;;;;4979539;28;20025;-81
2022/02/01 17:32:07;;;;;;;33.40;20.52;;;;;;;;;;4877593;29;20940;-77
2022/02/01 17:34:39;;;;;;;35.17;22.00;;;;;;;;;;4885321;29;20073;-77
2022/02/01 17:37:10;;;;;;;84.63;46.03;;;;;;;;;;5052565;23;20504;-72
2022/02/01 17:39:36;;;;;;;48.83;30.80;;;;;;;;;;4947065;29;20038;-72
2022/02/01 17:42:30;;;;;;;32.88;20.83;;;;;;;;;;4943032;28;20039;-70
2022/02/01 17:45:01;;;;;;;;;;;;;;;;;;4955664;28;20028;-72
2022/02/01 17:47:33;;;;;;;32.97;21.70;;;;;;;;;;5342811;23;19922;-74
2022/02/01 17:50:01;;;;;;;35.42;21.65;;;;;;;;;;4981525;28;20042;-73
2022/02/01 17:52:42;;;;;;;44.92;24.20;;;;;;;;;;4977896;28;20036;-75
2022/02/01 17:55:14;;;;;;;41.72;25.70;;;;;;;;;;4985641;28;20019;-74
2022/02/01 17:57:52;;;;;;;50.05;27.42;;;;;;;;;;4990010;28;20031;-74
2022/02/01 18:00:18;;;;;;;42.58;27.23;;;;;;;;;;4997164;28;20940;-74
2022/02/01 18:02:44;;;;;;;51.08;27.63;;;;;;;;;;4993029;28;20030;-72
2022/02/01 18:05:13;;;;;;;50.00;30.55;;;;;;;;;;4986595;28;20022;-73
2022/02/01 18:07:39;;;;;;;51.65;31.98;;;;;;;;;;4986690;28;20035;-76